KDAG/DAG METAR and TAF weather

Enter ICAO airport designator
Station Type Date Time Source
KDAG METAR 2018/10/16 19:50 UTC NOAA

KDAG 161950Z AUTO VRB03KT 10SM CLR 20/M12 A3013 RMK AO2 SLP191 T02001122


Station Type Date Time Source
KDAG Decoded METAR 2018/10/16 19:50 UTC NOAA

BARSTOW-DAGGETT AIRPORT, CA, United States (KDAG) 34-51N 116-47W 587M
Oct 16, 2018 - 03:50 PM EDT / 2018.10.16 1950 UTC
Wind: Variable at 3 MPH (3 KT):0
Visibility: 10 mile(s):0
Sky conditions: clear
Temperature: 68.0 F (20.0 C)
Dew Point: 10.0 F (-12.2 C)
Relative Humidity: 10%
Pressure (altimeter): 30.13 in. Hg (1020 hPa)
ob: KDAG 161950Z AUTO VRB03KT 10SM CLR 20/M12 A3013 RMK AO2 SLP191 T02001122
cycle: 20

Station Type Date Time Source
KDAG TAF 2018/10/16 18:22 UTC NOAA

TAF KDAG 161720Z 1618/1718 06007KT P6SM SKC
FM170100 VRB04KT P6SM FEW120 SCT200
FM170600 27007KT P6SM FEW120 SCT200


Example: see airport list